ΕΜΥ, Εθνική Μετεωρολογική Υπηρεσία - Δελτία Καιρού, Προγνώσεις

ΑΕΡΟΝΑΥΤΙΛΙΑ

GREEK AIRPORTS CODES

LGKY 221600Z 30010KT CAVOK 17/11 Q1020 RMK FEW180=

EUROPEAN AIRPORTS CODES

LEMD 231000Z 12005KT 070V170 9999 SCT031 BKN040 15/08 Q1019NOSIG=